Terminal Aerodrome Forecast
Issued by NWS Omaha/Valley, NE

Home | Current Version | Previous Version | Text Only | Print | Product List | Glossary Off
Versions: 1 2 3 4 5 6 7 8 9 10 11 12 13 14 15 16 17 18 19 20 21 22 23

000
FTUS43 KOAX 281633 AAB
TAFOFK
TAF AMD
KOFK 281633Z 2817/2912 11005KT P6SM BKN015
      TEMPO 2820/2823 SCT015 BKN200
     FM290000 10008KT P6SM OVC030
     FM290300 09007KT P6SM -RA OVC018
     FM290600 07007KT 5SM -RA BR OVC008=

USA.gov is the U.S. government's official web portal to all federal, state and local government web resources and services.